Nearby METAR Reports

 

KSJC - San Jose, California, USA
Distance from station: NE 14km
Updated: 20/11/2019 14:53
Clear
Clear
 Wind from calm
Wind: Calm
Temperature: 11°C
Dew Point: 7°C
Humidity: 77%
Barometer: 1000.7 hPa
Clouds: Clear
Visibility: 16 km
2019/11/20 12:53 KSJC 201253Z AUTO 00000KT 10SM CLR 11/07 A2955 RMK AO2 SLP007 T01060072
KNUQ - Moffett Nas/Mtn, California, USA
Distance from station: N 14km
Updated: 20/11/2019 14:56

 
Barometer: 1001 hPa
2019/11/20 12:56 KNUQ 201256Z AUTO A2956 RMK AO2 SLP014 PWINO $
 
KPAO - Palo Alto, California, USA
Distance from station: NNW 23km
Updated: 20/11/2019 06:47
NOT Current
Partly cloudy
Partly cloudy
 Wind from W
Wind: W 13 km/h
Temperature: 12°C
Dew Point: 9°C
Humidity: 82%
Barometer: 1003 hPa
Clouds: Partly cloudy
Visibility: 16 km
Cloud details: Partly cloudy 518 m
2019/11/20 04:47 KPAO 200447Z 27007KT 10SM SCT017 12/09 A2962
KRHV - San Jose/Reid, California, USA
Distance from station: ENE 19km
Updated: 20/11/2019 07:47
NOT Current
Mostly cloudy
Mostly cloudy
 Wind from NW
Wind: NW 11 km/h
Temperature: 13°C
Dew Point: 9°C
Humidity: 77%
Barometer: 1002.7 hPa
Clouds: Mostly cloudy
Visibility: 16 km
Cloud details: Mostly cloudy 853 m
2019/11/20 05:47 KRHV 200547Z 32006KT 10SM BKN028 13/09 A2961 RMK LAST
 
KOAK - Oakland, California, USA
Distance from station: NNW 50km
Updated: 20/11/2019 14:53
Mostly cloudy
Mostly cloudy
 Wind from NW
Wind: NW 15 km/h
Temperature: 12°C
Dew Point: 6°C
Humidity: 67%
Barometer: 1000.7 hPa
Clouds: Mostly cloudy
Visibility: 16 km
Cloud details: Mostly cloudy 6096 m
2019/11/20 12:53 KOAK 201253Z 31008KT 10SM BKN200 12/06 A2955 RMK AO2 SLP007 T01220056
KSQL - San Carlos Airpo, California, USA
Distance from station: NW 34km
Updated: 20/11/2019 15:15
Clear
Clear
 Wind from calm
Wind: Calm
Temperature: 10°C
Dew Point: 7°C
Humidity: 82%
Barometer: 1001 hPa
Clouds: Clear
Visibility: 16 km
2019/11/20 13:15 KSQL 201315Z AUTO 00000KT 10SM CLR 10/07 A2956 RMK AO2
 
KSFO - San Francisco, California, USA
Distance from station: NW 49km
Updated: 20/11/2019 14:56
Few Clouds
Few Clouds
 Wind from W
Wind: W 20 km/h
Temperature: 11°C
Dew Point: 7°C
Humidity: 77%
Barometer: 1000.7 hPa
Clouds: Few Clouds
Visibility: 16 km
Cloud details: Few Clouds 3353 m
2019/11/20 12:56 KSFO 201256Z 28011KT 10SM FEW110 11/07 A2955 RMK AO2 SLP006 T01110072
KE16 - San Martin, California, USA
Distance from station: ESE 43km
Updated: 14/11/2019 11:35
NOT Current
Overcast
Overcast
 Wind from SE
Wind: SE 11 km/h
Temperature: 12°C
Dew Point: 10°C
Humidity: 88%
Barometer: 1017.6 hPa
Clouds: Overcast
Visibility: 16 km
Cloud details: Overcast 427 m
2019/11/14 09:35 KE16 140935Z AUTO 13006KT 10SM OVC014 12/10 A3005 RMK AO2
 
KWVI - Watsonville, California, USA
Distance from station: SSE 44km
Updated: 20/11/2019 14:53
Clear
Clear
 Wind from calm
Wind: Calm
Temperature: 8°C
Dew Point: 6°C
Humidity: 87%
Barometer: 1000.7 hPa
Clouds: Clear
Visibility: 16 km
2019/11/20 12:53 KWVI 201253Z AUTO 00000KT 10SM CLR 08/06 A2955 RMK AO2 SLP005 T00780061
KHAF - Half Moon Bay, California, USA
Distance from station: WNW 50km
Updated: 20/11/2019 15:00
Haze, Clear
Haze, Clear
 Wind from NNW
Wind: NNW 11 km/h
Temperature: 12°C
Dew Point: 9°C
Humidity: 82%
Barometer: 1001.4 hPa
Summary: Haze
Clouds: Clear
Visibility: 8 km
2019/11/20 13:00 KHAF 201300Z AUTO 33006KT 5SM HZ CLR 12/09 A2957 RMK AO2
 
KHWD - Hayward, California, USA
Distance from station: N 44km
Updated: 20/11/2019 14:54
Clear
Clear
 Wind from calm
Wind: Calm
Temperature: 8°C
Dew Point: 5°C
Humidity: 82%
Barometer: 1000.7 hPa
Clouds: Clear
Visibility: 16 km
2019/11/20 12:54 KHWD 201254Z 00000KT 10SM CLR 08/05 A2955 RMK AO2 SLP016 T00780050
KLVK - Livermore, California, USA
Distance from station: NNE 51km
Updated: 20/11/2019 14:53
Clear
Clear
 Wind from calm
Wind: Calm
Temperature: 8°C
Dew Point: 7°C
Humidity: 93%
Barometer: 1000.3 hPa
Clouds: Clear
Visibility: 16 km
2019/11/20 12:53 KLVK 201253Z AUTO 00000KT 10SM CLR 08/07 A2954 RMK AO2 SLP003 T00830067